Time;durP1;ratioP1;P1;durP2;ratioP2;P2;SDS_P1;SDS_P2;PMS_P1;PMS_P2;Temp;Humidity;BMP_temperature;BMP_pressure;BME280_temperature;BME280_humidity;BME280_pressure;Samples;Min_cycle;Max_cycle;Signal;HPM_P1;HPM_P2
2021/01/29 00:01:15;;;;;;;51.92;21.63;;;2.90;99.90;;;;;;5072291;28;20493;-75
2021/01/29 00:03:40;;;;;;;53.20;22.35;;;2.90;99.90;;;;;;5073805;28;20103;-75
2021/01/29 00:06:06;;;;;;;57.40;23.85;;;2.90;99.90;;;;;;5073780;28;20024;-75
2021/01/29 00:08:33;;;;;;;48.90;23.27;;;2.90;99.90;;;;;;5073228;28;20027;-74
2021/01/29 00:11:00;;;;;;;51.53;22.48;;;2.90;99.90;;;;;;5073758;28;20016;-75
2021/01/29 00:13:25;;;;;;;50.45;22.33;;;3.00;99.90;;;;;;5073409;28;20521;-73
2021/01/29 00:15:51;;;;;;;59.08;24.20;;;3.00;99.90;;;;;;5072224;28;20103;-75
2021/01/29 00:18:18;;;;;;;56.55;24.95;;;3.00;99.90;;;;;;5073656;28;20024;-73
2021/01/29 00:20:44;;;;;;;58.92;24.65;;;3.00;99.90;;;;;;5073541;28;20027;-73
2021/01/29 00:23:10;;;;;;;56.35;24.10;;;3.00;99.90;;;;;;5074532;28;20021;-73
2021/01/29 00:25:38;;;;;;;64.68;25.92;;;3.00;99.90;;;;;;5077454;28;20024;-73
2021/01/29 00:28:06;;;;;;;55.90;23.48;;;3.00;99.90;;;;;;5077112;28;20032;-72
2021/01/29 00:30:31;;;;;;;60.30;24.58;;;3.00;99.90;;;;;;5077343;28;20465;-75
2021/01/29 00:32:59;;;;;;;61.78;24.88;;;3.00;99.90;;;;;;5077339;28;20031;-74
2021/01/29 00:35:28;;;;;;;60.20;24.70;;;3.00;99.90;;;;;;5077244;28;20017;-74
2021/01/29 00:37:54;;;;;;;63.72;26.08;;;3.00;99.90;;;;;;5077216;28;20028;-74
2021/01/29 00:40:19;;;;;;;58.65;25.27;;;3.10;99.90;;;;;;5075759;28;20017;-74
2021/01/29 00:42:46;;;;;;;62.05;26.13;;;3.10;99.90;;;;;;5077030;28;20032;-74
2021/01/29 00:45:14;;;;;;;66.25;27.25;;;3.10;99.90;;;;;;5076552;28;20048;-74
2021/01/29 00:47:40;;;;;;;66.13;26.85;;;3.10;99.90;;;;;;5076056;28;20017;-74
2021/01/29 00:50:07;;;;;;;64.00;27.13;;;3.10;99.90;;;;;;5076428;28;20063;-75
2021/01/29 00:52:33;;;;;;;67.78;27.33;;;3.10;99.90;;;;;;5075125;28;20025;-73
2021/01/29 00:54:59;;;;;;;68.10;27.70;;;3.10;99.90;;;;;;5076625;28;20039;-72
2021/01/29 00:57:24;;;;;;;67.93;28.10;;;3.10;99.90;;;;;;5076814;28;20020;-72
2021/01/29 00:59:50;;;;;;;69.03;27.90;;;3.10;99.90;;;;;;5076581;28;20173;-74
2021/01/29 01:02:15;;;;;;;61.38;26.08;;;3.20;99.90;;;;;;5076428;28;20054;-73
2021/01/29 01:04:41;;;;;;;69.60;27.63;;;3.20;99.90;;;;;;5076437;28;20423;-73
2021/01/29 01:07:07;;;;;;;63.60;29.15;;;3.10;99.90;;;;;;5076412;28;20036;-74
2021/01/29 01:09:33;;;;;;;66.10;27.45;;;3.20;99.90;;;;;;5076624;28;20099;-74
2021/01/29 01:11:58;;;;;;;67.38;28.55;;;3.20;99.90;;;;;;5076612;28;20075;-73
2021/01/29 01:14:24;;;;;;;64.25;27.40;;;3.20;99.90;;;;;;5076263;28;20074;-73
2021/01/29 01:16:50;;;;;;;72.97;28.95;;;3.20;99.90;;;;;;5076526;28;20085;-73
2021/01/29 01:19:16;;;;;;;67.07;28.33;;;3.20;99.90;;;;;;5076192;28;20017;-73
2021/01/29 01:21:42;;;;;;;63.42;27.88;;;3.20;99.90;;;;;;5075165;28;20096;-73
2021/01/29 01:24:08;;;;;;;62.90;27.67;;;3.30;99.90;;;;;;5076405;28;20426;-73
2021/01/29 01:26:33;;;;;;;70.93;28.60;;;3.30;99.90;;;;;;5076331;28;20028;-72
2021/01/29 01:28:59;;;;;;;64.80;26.25;;;3.30;99.90;;;;;;5076017;28;20021;-73
2021/01/29 01:31:24;;;;;;;68.22;27.42;;;3.40;99.90;;;;;;5075930;28;20172;-73
2021/01/29 01:33:50;;;;;;;65.05;27.50;;;3.40;99.90;;;;;;5075900;28;20035;-73
2021/01/29 01:36:16;;;;;;;65.75;28.65;;;3.40;99.90;;;;;;5075883;28;20035;-73
2021/01/29 01:38:43;;;;;;;68.80;28.20;;;3.40;99.90;;;;;;5076099;28;20078;-72
2021/01/29 01:41:09;;;;;;;68.78;27.95;;;3.40;99.90;;;;;;5075548;28;20041;-72
2021/01/29 01:43:34;;;;;;;68.10;26.95;;;3.40;99.90;;;;;;5075983;28;20021;-72
2021/01/29 01:46:09;;;;;;;66.65;28.40;;;3.40;99.90;;;;;;5075964;28;20090;-73
2021/01/29 01:48:45;;;;;;;72.40;29.58;;;3.50;99.90;;;;;;5075937;28;20323;-73
2021/01/29 01:51:19;;;;;;;73.65;28.27;;;3.40;99.90;;;;;;5075866;28;20588;-72
2021/01/29 01:53:48;;;;;;;61.80;27.83;;;3.50;99.90;;;;;;5075824;28;20071;-73
2021/01/29 01:56:28;;;;;;;70.00;27.52;;;3.50;99.90;;;;;;5075800;28;20025;-73
2021/01/29 01:58:58;;;;;;;65.07;26.55;;;3.50;99.90;;;;;;5075746;28;20063;-73
2021/01/29 02:01:24;;;;;;;63.10;26.98;;;3.50;99.90;;;;;;5075084;28;20032;-72
2021/01/29 02:03:51;;;;;;;69.35;27.63;;;3.50;99.90;;;;;;5075404;28;20074;-73
2021/01/29 02:06:18;;;;;;;65.32;26.55;;;3.50;99.90;;;;;;5075319;28;20044;-73
2021/01/29 02:08:46;;;;;;;71.72;28.80;;;3.50;99.90;;;;;;5075527;28;20013;-73
2021/01/29 02:11:14;;;;;;;65.57;27.30;;;3.60;99.90;;;;;;5075505;28;20028;-73
2021/01/29 02:13:39;;;;;;;61.78;27.33;;;3.60;99.90;;;;;;5075150;28;20103;-73
2021/01/29 02:16:21;;;;;;;62.22;26.50;;;3.60;99.90;;;;;;5075401;28;20052;-73
2021/01/29 02:19:19;;;;;;;68.38;27.70;;;3.70;99.90;;;;;;5075088;28;20056;-73
2021/01/29 02:22:19;;;;;;;66.10;28.17;;;3.70;99.90;;;;;;5074537;28;20060;-73
2021/01/29 02:25:21;;;;;;;70.40;28.10;;;3.70;99.90;;;;;;5073280;28;20031;-73
2021/01/29 02:27:57;;;;;;;62.15;27.23;;;3.70;99.90;;;;;;5074855;28;20078;-73
2021/01/29 02:30:38;;;;;;;64.65;28.33;;;3.70;99.90;;;;;;5075072;28;20024;-73
2021/01/29 02:33:40;;;;;;;70.35;28.65;;;3.70;99.90;;;;;;5074735;28;20107;-74
2021/01/29 02:39:23;;;;;;;66.18;27.30;;;3.70;99.90;;;;;;5071646;28;20419;-72
2021/01/29 02:42:12;;;;;;;73.03;28.13;;;3.80;99.90;;;;;;5070717;28;20025;-73
2021/01/29 02:47:25;;;;;;;64.65;27.45;;;3.70;99.90;;;;;;5112262;27;20354;-72
2021/01/29 02:50:20;;;;;;;72.27;28.30;;;3.80;99.90;;;;;;5111962;28;20028;-73
2021/01/29 02:53:02;;;;;;;69.63;27.48;;;3.80;99.90;;;;;;5111211;28;20026;-74
2021/01/29 02:55:45;;;;;;;67.63;28.00;;;3.80;99.90;;;;;;5111567;28;20024;-74
2021/01/29 03:01:18;;;;;;;73.45;28.52;;;3.80;99.90;;;;;;5091895;27;20405;-73
2021/01/29 03:04:06;;;;;;;79.40;30.02;;;3.80;99.90;;;;;;5091029;28;20077;-72
2021/01/29 03:06:43;;;;;;;71.40;27.95;;;3.80;99.90;;;;;;5090901;28;20032;-73
2021/01/29 03:09:25;;;;;;;70.95;28.40;;;3.80;99.90;;;;;;5090928;28;20036;-74
2021/01/29 03:12:01;;;;;;;72.32;28.20;;;3.90;99.90;;;;;;5091425;28;20028;-74
2021/01/29 03:14:39;;;;;;;74.00;29.50;;;3.80;99.90;;;;;;5091405;28;20021;-73
2021/01/29 03:17:27;;;;;;;69.18;29.13;;;3.90;99.90;;;;;;5091320;28;20024;-73
2021/01/29 03:20:09;;;;;;;76.43;29.15;;;3.90;99.90;;;;;;5090653;28;20027;-72
2021/01/29 03:22:42;;;;;;;77.65;29.23;;;3.90;99.90;;;;;;5091220;28;20469;-72
2021/01/29 03:25:18;;;;;;;76.63;29.85;;;3.90;99.90;;;;;;5089497;28;20046;-73
2021/01/29 03:27:48;;;;;;;78.22;29.98;;;3.90;99.90;;;;;;5091098;28;20020;-72
2021/01/29 03:30:19;;;;;;;72.03;29.75;;;3.90;99.90;;;;;;5091052;28;20023;-72
2021/01/29 03:32:50;;;;;;;70.88;28.40;;;4.00;99.90;;;;;;5089588;28;20081;-74
2021/01/29 03:35:38;;;;;;;68.53;28.27;;;3.90;99.90;;;;;;5072363;28;20024;-74
2021/01/29 03:38:16;;;;;;;75.93;28.38;;;3.90;99.90;;;;;;5090371;28;20027;-74
2021/01/29 03:40:44;;;;;;;75.15;28.65;;;3.90;99.90;;;;;;5089245;28;20024;-74
2021/01/29 03:43:27;;;;;;;75.18;28.15;;;4.00;99.90;;;;;;5090837;28;20108;-74
2021/01/29 03:46:20;;;;;;;68.47;28.73;;;4.00;99.90;;;;;;5090500;28;20035;-74
2021/01/29 03:48:54;;;;;;;70.05;27.55;;;4.00;99.90;;;;;;5090141;28;20496;-73
2021/01/29 03:52:00;;;;;;;75.78;28.50;;;4.10;99.90;;;;;;5090685;28;20033;-74
2021/01/29 03:54:34;;;;;;;73.50;27.17;;;4.10;99.90;;;;;;5089977;28;20380;-74
2021/01/29 03:57:33;;;;;;;69.85;28.48;;;4.10;99.90;;;;;;5090310;28;20020;-74
2021/01/29 04:03:13;;;;;;;77.95;29.33;;;4.10;99.90;;;;;;5071574;28;20928;-72
2021/01/29 04:06:18;;;;;;;75.25;27.20;;;4.20;99.90;;;;;;5070819;28;20035;-73
2021/01/29 04:08:57;;;;;;;72.47;27.05;;;4.20;99.90;;;;;;5070733;28;20032;-73
2021/01/29 04:11:31;;;;;;;74.95;29.95;;;4.20;99.90;;;;;;5070169;28;20028;-74
2021/01/29 04:14:00;;;;;;;71.00;29.30;;;4.20;99.90;;;;;;5070651;28;20070;-74
2021/01/29 04:16:33;;;;;;;88.13;30.25;;;4.20;99.90;;;;;;5071151;28;20074;-74
2021/01/29 04:19:02;;;;;;;80.25;29.50;;;4.30;99.90;;;;;;5070852;28;20470;-74
2021/01/29 04:21:35;;;;;;;85.38;31.08;;;4.30;99.90;;;;;;5070981;28;20035;-74
2021/01/29 04:24:09;;;;;;;97.10;31.67;;;4.30;99.90;;;;;;5070494;28;20021;-74
2021/01/29 04:26:49;;;;;;;91.18;32.58;;;4.40;99.90;;;;;;5069440;28;20064;-74
2021/01/29 04:29:19;;;;;;;84.75;30.40;;;4.40;99.90;;;;;;5070331;28;20100;-74
2021/01/29 04:31:47;;;;;;;83.45;31.35;;;4.50;99.90;;;;;;5070841;28;20032;-74
2021/01/29 04:34:16;;;;;;;85.57;30.80;;;4.50;99.90;;;;;;5070801;28;20025;-73
2021/01/29 04:36:43;;;;;;;84.30;30.23;;;4.50;99.90;;;;;;5070764;28;20470;-72
2021/01/29 04:39:17;;;;;;;98.28;32.10;;;4.50;99.90;;;;;;5070710;28;20024;-73
2021/01/29 04:45:24;;;;;;;90.28;30.90;;;4.50;99.90;;;;;;5133242;27;650384;-72
2021/01/29 04:48:13;;;;;;;97.22;31.77;;;4.50;99.90;;;;;;5131943;28;20027;-72
2021/01/29 04:51:05;;;;;;;100.15;33.72;;;4.50;99.90;;;;;;5132393;27;20019;-73
2021/01/29 04:54:10;;;;;;;94.38;31.75;;;4.60;99.90;;;;;;5131763;27;20061;-72
2021/01/29 04:57:16;;;;;;;90.57;32.00;;;4.60;99.90;;;;;;5131618;27;20529;-73
2021/01/29 05:00:09;;;;;;;87.57;31.25;;;4.60;99.90;;;;;;5131523;28;20052;-73
2021/01/29 05:02:59;;;;;;;96.77;32.33;;;4.60;99.90;;;;;;5131467;28;20028;-73
2021/01/29 05:06:04;;;;;;;98.93;33.03;;;4.70;99.90;;;;;;5130082;28;20750;-73
2021/01/29 05:08:45;;;;;;;97.65;32.47;;;4.70;99.90;;;;;;5131345;28;20023;-72
2021/01/29 05:11:45;;;;;;;102.53;33.67;;;4.80;99.90;;;;;;5131730;27;20022;-73
2021/01/29 05:14:36;;;;;;;94.78;31.00;;;4.80;99.90;;;;;;5131376;27;20384;-73
2021/01/29 05:17:38;;;;;;;86.07;30.98;;;4.80;99.90;;;;;;5131709;28;20069;-73
2021/01/29 05:23:02;;;;;;;85.03;31.20;;;4.70;99.90;;;;;;5091890;28;20407;-73
2021/01/29 05:26:08;;;;;;;90.80;31.50;;;4.70;99.90;;;;;;5091546;28;20039;-73
2021/01/29 05:29:13;;;;;;;88.03;30.48;;;4.70;99.90;;;;;;5090870;28;20054;-74
2021/01/29 05:32:06;;;;;;;96.78;31.05;;;4.70;99.90;;;;;;5090763;28;20119;-74
2021/01/29 05:34:40;;;;;;;94.20;32.10;;;4.70;99.90;;;;;;5091427;28;20103;-73
2021/01/29 05:40:42;;;;;;;91.55;31.10;;;4.70;99.90;;;;;;5112294;27;20347;-73
2021/01/29 05:43:41;;;;;;;93.18;32.17;;;4.80;99.90;;;;;;5111789;28;20479;-73
2021/01/29 05:46:38;;;;;;;81.03;28.40;;;4.70;99.90;;;;;;5111205;28;20032;-73
2021/01/29 05:49:25;;;;;;;87.18;31.17;;;4.80;99.90;;;;;;5111245;28;20102;-71
2021/01/29 05:52:23;;;;;;;84.53;29.83;;;4.80;99.90;;;;;;5109982;28;20031;-72
2021/01/29 05:55:09;;;;;;;89.07;30.52;;;4.80;99.90;;;;;;5111126;28;20027;-73
2021/01/29 05:58:02;;;;;;;92.55;29.75;;;4.90;99.90;;;;;;5111649;28;20084;-73
2021/01/29 06:01:08;;;;;;;100.10;29.40;;;4.90;99.90;;;;;;5111097;28;20020;-71
2021/01/29 06:04:00;;;;;;;88.28;28.92;;;4.90;99.90;;;;;;5110840;28;20047;-73
2021/01/29 06:07:05;;;;;;;85.88;28.98;;;4.90;99.90;;;;;;5110793;28;20111;-73
2021/01/29 06:10:10;;;;;;;77.82;28.67;;;5.00;99.90;;;;;;5110672;28;20035;-73
2021/01/29 06:13:07;;;;;;;91.65;31.02;;;5.00;99.90;;;;;;5110642;28;20350;-73
2021/01/29 06:16:05;;;;;;;79.88;28.23;;;5.00;99.90;;;;;;5110645;28;20411;-73
2021/01/29 06:24:21;;;;;;;77.75;29.35;;;5.00;99.90;;;;;;5112278;27;20111;-72
2021/01/29 06:27:20;;;;;;;88.80;29.67;;;5.10;99.90;;;;;;5111601;28;20488;-72
2021/01/29 06:30:17;;;;;;;94.93;30.08;;;5.10;99.90;;;;;;5111141;28;20461;-73
2021/01/29 06:33:13;;;;;;;88.18;30.15;;;5.10;99.90;;;;;;5111075;28;20473;-73
2021/01/29 06:35:54;;;;;;;84.32;28.38;;;5.10;99.90;;;;;;5111682;28;20440;-73
2021/01/29 06:41:34;;;;;;;81.68;27.33;;;5.20;99.90;;;;;;5111931;27;20347;-72
2021/01/29 06:44:40;;;;;;;80.18;26.85;;;5.20;99.90;;;;;;5111832;28;20106;-72
2021/01/29 06:56:11;;;;;;;78.43;26.75;;;5.30;99.90;;;;;;5111934;27;20347;-73
2021/01/29 06:58:57;;;;;;;80.05;28.05;;;5.30;99.90;;;;;;5111185;28;20389;-73
2021/01/29 07:01:51;;;;;;;76.80;27.17;;;5.30;99.90;;;;;;5111763;28;20088;-73
2021/01/29 07:07:55;;;;;;;83.43;26.88;;;5.40;99.90;;;;;;5112038;27;20848;-71
2021/01/29 07:10:44;;;;;;;85.45;28.27;;;5.40;99.90;;;;;;5111092;28;20095;-72
2021/01/29 07:13:41;;;;;;;78.80;27.77;;;5.40;99.90;;;;;;5111573;28;20481;-72
2021/01/29 07:22:32;;;;;;;90.95;32.25;;;5.50;99.90;;;;;;5091732;28;20344;-70
2021/01/29 07:25:10;;;;;;;93.10;32.20;;;5.50;99.90;;;;;;5091460;28;20378;-69
2021/01/29 07:28:39;;;;;;;80.55;28.65;;;5.50;99.90;;;;;;5090872;28;20024;-71
2021/01/29 07:31:35;;;;;;;84.57;29.80;;;5.50;99.90;;;;;;5090447;28;20184;-71
2021/01/29 07:34:13;;;;;;;84.43;29.65;;;5.50;99.90;;;;;;5091231;28;20033;-71
2021/01/29 07:37:19;;;;;;;95.20;31.15;;;5.50;99.90;;;;;;5091158;28;20024;-71
2021/01/29 07:40:24;;;;;;;89.75;29.40;;;5.50;99.90;;;;;;5090359;28;20439;-72
2021/01/29 07:43:18;;;;;;;86.25;29.05;;;5.50;99.90;;;;;;5086069;28;20028;-71
2021/01/29 07:46:03;;;;;;;;;;;5.50;99.90;;;;;;5071229;28;20223;-72
2021/01/29 07:48:59;;;;;;;74.20;25.75;;;5.50;99.90;;;;;;5090249;28;19912;-69
2021/01/29 07:51:50;;;;;;;70.70;27.75;;;5.60;99.90;;;;;;5090525;28;20024;-70
2021/01/29 07:54:44;;;;;;;101.30;40.83;;;5.60;99.90;;;;;;5088315;28;20427;-69
2021/01/29 07:57:46;;;;;;;77.45;27.48;;;5.70;99.90;;;;;;5069353;28;20079;-70
2021/01/29 08:00:40;;;;;;;70.32;26.73;;;5.70;99.90;;;;;;5069638;28;20103;-72
2021/01/29 08:03:38;;;;;;;73.90;26.30;;;5.70;99.90;;;;;;5069304;28;20421;-70
2021/01/29 08:06:26;;;;;;;66.13;27.02;;;5.70;99.90;;;;;;5069406;28;20021;-71
2021/01/29 08:09:05;;;;;;;69.05;25.95;;;5.70;99.90;;;;;;5069876;28;20020;-71
2021/01/29 08:11:35;;;;;;;59.05;24.02;;;5.80;99.90;;;;;;5068497;28;20032;-71
2021/01/29 08:14:27;;;;;;;64.97;27.35;;;5.80;99.90;;;;;;5068163;28;20024;-70
2021/01/29 08:17:16;;;;;;;56.45;24.08;;;5.80;99.90;;;;;;5068088;28;20028;-72
2021/01/29 08:20:07;;;;;;;68.88;25.33;;;5.80;99.90;;;;;;5068019;28;20173;-72
2021/01/29 08:22:46;;;;;;;58.03;24.13;;;5.90;99.90;;;;;;5068962;28;20044;-73
2021/01/29 08:28:29;;;;;;;100.30;43.38;;;5.90;99.90;;;;;;5111212;27;20855;-73
2021/01/29 08:31:23;;;;;;;110.13;49.80;;;6.30;99.90;;;;;;5109355;28;20032;-71
2021/01/29 08:34:29;;;;;;;102.28;46.00;;;6.70;99.90;;;;;;5110942;28;20481;-70
2021/01/29 08:37:35;;;;;;;105.50;53.00;;;6.90;99.90;;;;;;5110539;28;20051;-70
2021/01/29 08:40:20;;;;;;;71.93;39.08;;;7.20;99.90;;;;;;5110591;28;20016;-71
2021/01/29 08:43:13;;;;;;;50.03;27.38;;;7.40;99.90;;;;;;5110334;28;20049;-70
2021/01/29 08:48:57;;;;;;;35.05;18.33;;;7.60;99.90;;;;;;5111664;27;20355;-70
2021/01/29 08:51:45;;;;;;;29.48;15.93;;;7.80;99.90;;;;;;5111019;28;20495;-71
2021/01/29 08:54:37;;;;;;;26.65;14.88;;;7.90;99.90;;;;;;5109500;28;20020;-70
2021/01/29 08:59:58;;;;;;;21.38;11.93;;;8.00;99.90;;;;;;5111169;27;20856;-71
2021/01/29 09:02:56;;;;;;;19.13;11.25;;;8.10;99.90;;;;;;5109602;28;20020;-72
2021/01/29 09:05:24;;;;;;;18.00;9.52;;;8.10;99.90;;;;;;5109609;28;20123;-72
2021/01/29 09:08:00;;;;;;;15.80;9.80;;;8.20;99.90;;;;;;5109454;28;20020;-72
2021/01/29 09:10:53;;;;;;;18.25;9.90;;;8.10;99.90;;;;;;5110802;28;20107;-70
2021/01/29 09:13:21;;;;;;;18.45;11.13;;;8.20;99.90;;;;;;5111056;28;20023;-74
2021/01/29 09:16:18;;;;;;;16.90;10.13;;;8.20;99.90;;;;;;5111213;28;20035;-70
2021/01/29 09:18:50;;;;;;;21.65;10.88;;;8.30;99.90;;;;;;5111330;28;20027;-72
2021/01/29 09:27:13;;;;;;;23.02;12.73;;;8.30;99.90;;;;;;5111357;27;20115;-70
2021/01/29 09:29:54;;;;;;;27.25;13.32;;;8.30;99.90;;;;;;5109760;28;20077;-72
2021/01/29 09:32:43;;;;;;;20.30;12.68;;;8.30;99.90;;;;;;5110788;28;20020;-72
2021/01/29 09:35:16;;;;;;;21.52;13.00;;;8.40;99.90;;;;;;5109639;28;20039;-72
2021/01/29 09:37:49;;;;;;;22.52;13.88;;;8.40;99.90;;;;;;5092900;28;20073;-71
2021/01/29 09:40:22;;;;;;;47.25;28.23;;;8.40;99.90;;;;;;5110907;28;20449;-69
2021/01/29 09:42:58;;;;;;;35.17;22.08;;;8.50;99.90;;;;;;5109444;28;20391;-70
2021/01/29 09:45:27;;;;;;;30.05;17.58;;;8.40;99.90;;;;;;5108849;28;20508;-71
2021/01/29 09:48:00;;;;;;;22.73;15.00;;;8.50;99.90;;;;;;5109623;28;20058;-71
2021/01/29 09:50:29;;;;;;;21.65;14.18;;;8.50;99.90;;;;;;5110564;28;20013;-70
2021/01/29 09:53:21;;;;;;;23.33;13.98;;;8.50;99.90;;;;;;5109570;28;20028;-72
2021/01/29 09:56:13;;;;;;;18.35;12.20;;;8.50;99.90;;;;;;5110826;28;20030;-73
2021/01/29 09:59:18;;;;;;;15.60;11.13;;;8.40;99.90;;;;;;5109144;28;20031;-71
2021/01/29 10:01:55;;;;;;;10.07;8.05;;;8.50;99.90;;;;;;5110433;28;20067;-71
2021/01/29 10:04:33;;;;;;;8.98;6.63;;;8.50;99.90;;;;;;5108822;28;20023;-70
2021/01/29 10:07:05;;;;;;;10.77;6.13;;;8.50;99.90;;;;;;5110683;28;20477;-70
2021/01/29 10:09:36;;;;;;;11.35;5.60;;;8.50;99.90;;;;;;5110357;28;20027;-71
2021/01/29 10:12:12;;;;;;;7.43;5.70;;;8.50;99.90;;;;;;5109818;28;20035;-71
2021/01/29 10:15:04;;;;;;;9.15;5.75;;;8.50;99.90;;;;;;5108969;28;20047;-72
2021/01/29 10:17:36;;;;;;;10.48;6.53;;;8.50;99.90;;;;;;5110028;28;20035;-73
2021/01/29 10:20:06;;;;;;;11.13;5.82;;;8.50;99.90;;;;;;5109635;28;20035;-74
2021/01/29 10:22:57;;;;;;;12.23;5.70;;;8.60;99.90;;;;;;5091309;28;20028;-72
2021/01/29 10:26:02;;;;;;;15.57;6.45;;;8.60;99.90;;;;;;5109762;28;20647;-73
2021/01/29 10:31:38;;;;;;;11.75;5.38;;;8.70;99.90;;;;;;5111415;27;20724;-73
2021/01/29 10:34:44;;;;;;;13.35;5.00;;;8.70;99.90;;;;;;5110030;28;20084;-73
2021/01/29 10:37:34;;;;;;;11.65;4.82;;;8.70;99.90;;;;;;5090519;28;20096;-73
2021/01/29 10:40:13;;;;;;;16.52;4.78;;;8.70;99.90;;;;;;5089097;28;20131;-73
2021/01/29 10:42:51;;;;;;;9.88;4.13;;;8.70;99.90;;;;;;5089114;28;20025;-70
2021/01/29 10:45:31;;;;;;;19.00;5.95;;;8.70;99.90;;;;;;5090752;28;20028;-74
2021/01/29 10:48:18;;;;;;;20.70;6.38;;;8.70;99.90;;;;;;5090115;28;20024;-72
2021/01/29 10:50:57;;;;;;;19.42;4.78;;;8.70;99.90;;;;;;5090174;28;20029;-72
2021/01/29 10:53:24;;;;;;;24.05;6.07;;;8.70;99.90;;;;;;5090463;28;20021;-75
2021/01/29 10:55:57;;;;;;;17.70;5.53;;;8.70;99.90;;;;;;5072495;28;20489;-72
2021/01/29 10:58:35;;;;;;;16.73;5.13;;;8.60;99.90;;;;;;5090052;28;20028;-71
2021/01/29 11:01:06;;;;;;;19.55;5.35;;;8.70;99.90;;;;;;5072807;28;20066;-72
2021/01/29 11:03:46;;;;;;;17.25;4.43;;;8.70;99.90;;;;;;5088955;28;20103;-74
2021/01/29 11:06:15;;;;;;;12.73;4.30;;;8.80;99.90;;;;;;5071640;28;20030;-74
2021/01/29 11:08:44;;;;;;;20.52;4.38;;;8.80;99.90;;;;;;5071865;28;20041;-74
2021/01/29 11:11:21;;;;;;;25.88;6.55;;;8.80;99.90;;;;;;5089061;28;20048;-74
2021/01/29 11:14:03;;;;;;;29.42;6.70;;;8.80;99.90;;;;;;5089454;28;20031;-74
2021/01/29 11:16:59;;;;;;;41.05;15.63;;;8.80;99.90;;;;;;5089842;28;20070;-74
2021/01/29 11:19:33;;;;;;;36.28;13.93;;;8.90;99.90;;;;;;5090080;28;20048;-73
2021/01/29 11:22:26;;;;;;;28.10;8.85;;;8.80;99.90;;;;;;5092088;28;20035;-73
2021/01/29 11:25:20;;;;;;;38.63;11.55;;;8.80;99.90;;;;;;5089257;28;20089;-73
2021/01/29 11:28:11;;;;;;;28.63;8.55;;;8.70;99.90;;;;;;5098366;28;20053;-74
2021/01/29 11:30:52;;;;;;;28.58;7.72;;;8.70;99.90;;;;;;5109113;28;20096;-73
2021/01/29 11:33:32;;;;;;;25.73;6.03;;;8.70;99.90;;;;;;5108934;28;20067;-73
2021/01/29 11:36:07;;;;;;;31.42;7.68;;;8.70;99.90;;;;;;5108365;28;20115;-75
2021/01/29 11:38:47;;;;;;;22.58;6.68;;;8.70;99.90;;;;;;5109754;28;20103;-73
2021/01/29 11:41:36;;;;;;;31.15;7.65;;;8.70;99.90;;;;;;5083494;28;20040;-74
2021/01/29 11:44:09;;;;;;;32.10;7.88;;;8.70;99.90;;;;;;5074390;28;20445;-73
2021/01/29 11:46:47;;;;;;;32.65;9.05;;;8.70;99.90;;;;;;5091820;28;20028;-72
2021/01/29 11:49:17;;;;;;;35.55;8.63;;;8.70;99.90;;;;;;5079201;28;20024;-72
2021/01/29 11:52:19;;;;;;;45.70;9.98;;;8.70;99.90;;;;;;5094364;28;20024;-71
2021/01/29 11:55:08;;;;;;;47.35;10.50;;;8.70;99.90;;;;;;5092933;28;20020;-73
2021/01/29 11:57:43;;;;;;;33.17;8.75;;;8.70;99.90;;;;;;5095407;28;20024;-74
2021/01/29 12:00:48;;;;;;;46.00;8.45;;;8.70;99.90;;;;;;5094809;28;20063;-75
2021/01/29 12:03:42;;;;;;;44.92;8.25;;;8.70;99.90;;;;;;5094235;28;20051;-74
2021/01/29 12:06:33;;;;;;;43.58;8.52;;;8.70;99.90;;;;;;5095473;28;20020;-74
2021/01/29 12:09:09;;;;;;;29.25;8.13;;;8.80;99.90;;;;;;5096243;28;20020;-75
2021/01/29 12:11:47;;;;;;;36.17;8.30;;;8.90;99.90;;;;;;5095746;28;20055;-75
2021/01/29 12:16:55;;;;;;;35.95;8.25;;;9.00;99.90;;;;;;5111072;27;20412;-72
2021/01/29 12:19:33;;;;;;;33.55;7.65;;;9.10;99.90;;;;;;5110988;28;20024;-71
2021/01/29 12:22:23;;;;;;;38.70;6.55;;;9.20;99.90;;;;;;5092842;28;20023;-70
2021/01/29 12:24:58;;;;;;;32.35;8.13;;;9.20;99.90;;;;;;5109944;28;20508;-71
2021/01/29 12:27:38;;;;;;;34.58;7.13;;;9.20;99.90;;;;;;5088496;28;20456;-72
2021/01/29 12:30:27;;;;;;;42.90;8.88;;;9.20;99.90;;;;;;5090605;28;20039;-73
2021/01/29 12:33:14;;;;;;;37.17;6.38;;;9.20;99.90;;;;;;5090554;28;20389;-72
2021/01/29 12:38:37;;;;;;;30.60;5.88;;;9.30;99.90;;;;;;5110995;27;20397;-73
2021/01/29 12:41:27;;;;;;;26.58;5.38;;;9.50;99.90;;;;;;5110503;28;20045;-73
2021/01/29 12:44:32;;;;;;;42.55;6.57;;;9.60;99.90;;;;;;5090612;28;20020;-75
2021/01/29 12:47:21;;;;;;;27.10;5.78;;;9.70;99.90;;;;;;5109426;28;20030;-75
2021/01/29 12:49:56;;;;;;;34.45;6.07;;;9.70;99.90;;;;;;5093955;28;20030;-75
2021/01/29 12:52:27;;;;;;;31.88;5.43;;;9.80;99.90;;;;;;5092435;28;20065;-72
2021/01/29 12:55:05;;;;;;;28.65;5.90;;;9.80;99.90;;;;;;5111489;28;20027;-74
2021/01/29 12:57:33;;;;;;;26.17;5.32;;;9.90;99.90;;;;;;5109363;28;20477;-75
2021/01/29 13:00:28;;;;;;;27.20;5.38;;;10.20;99.90;;;;;;5110483;28;20045;-74
2021/01/29 13:03:05;;;;;;;24.58;5.93;;;10.50;99.90;;;;;;5078579;28;20115;-75
2021/01/29 13:05:58;;;;;;;20.77;4.55;;;10.50;99.90;;;;;;5090095;28;20466;-71
2021/01/29 13:14:26;;;;;;;30.08;5.82;;;10.30;99.90;;;;;;5070850;28;20835;-71
2021/01/29 13:17:32;;;;;;;24.38;4.78;;;10.00;99.90;;;;;;5069657;28;20031;-70
2021/01/29 13:23:38;;;;;;;29.75;4.97;;;10.00;99.90;;;;;;5110940;27;20359;-72
2021/01/29 13:26:10;;;;;;;26.08;4.40;;;9.90;99.90;;;;;;5070622;28;20023;-72
2021/01/29 13:28:38;;;;;;;21.85;4.20;;;9.80;99.90;;;;;;5086114;28;20036;-69
2021/01/29 13:31:22;;;;;;;25.05;4.68;;;9.60;99.90;;;;;;5070316;28;20025;-70
2021/01/29 13:33:53;;;;;;;23.88;4.63;;;9.60;99.90;;;;;;5069454;28;20036;-70
2021/01/29 13:36:31;;;;;;;25.25;5.22;;;9.60;99.90;;;;;;5082417;28;20397;-73
2021/01/29 13:39:22;;;;;;;22.63;4.57;;;9.70;99.90;;;;;;5089500;28;20024;-72
2021/01/29 13:42:11;;;;;;;19.35;3.78;;;9.60;99.90;;;;;;5090548;28;20027;-75
2021/01/29 13:44:43;;;;;;;14.52;4.63;;;9.60;99.90;;;;;;5089950;28;20036;-74
2021/01/29 13:47:20;;;;;;;24.95;4.72;;;9.50;99.90;;;;;;5090425;28;20020;-74
2021/01/29 13:49:46;;;;;;;24.27;4.30;;;9.40;99.90;;;;;;5080979;28;20031;-74
2021/01/29 13:52:36;;;;;;;17.80;3.33;;;9.30;99.90;;;;;;5110366;28;20034;-74
2021/01/29 13:55:33;;;;;;;11.05;2.53;;;9.10;99.90;;;;;;5100617;28;20447;-74
2021/01/29 13:58:06;;;;;;;9.45;2.40;;;8.90;99.90;;;;;;5074216;28;20441;-74
2021/01/29 14:00:38;;;;;;;7.63;2.35;;;8.90;99.90;;;;;;5084010;28;20028;-74
2021/01/29 14:03:19;;;;;;;8.73;2.38;;;8.80;99.90;;;;;;5092590;28;20032;-75
2021/01/29 14:05:46;;;;;;;5.32;1.33;;;8.80;99.90;;;;;;5095832;28;20035;-75
2021/01/29 14:08:14;;;;;;;10.10;3.08;;;8.70;99.90;;;;;;5089994;28;20059;-74
2021/01/29 14:11:04;;;;;;;8.77;2.55;;;8.70;99.90;;;;;;5100889;28;20026;-74
2021/01/29 14:13:39;;;;;;;10.27;2.90;;;8.70;99.90;;;;;;5109090;28;20024;-74
2021/01/29 14:16:30;;;;;;;10.70;3.22;;;8.70;99.90;;;;;;5077123;28;20024;-74
2021/01/29 14:19:06;;;;;;;11.95;3.88;;;8.70;99.90;;;;;;5077024;28;20485;-74
2021/01/29 14:21:47;;;;;;;13.77;3.90;;;8.70;99.90;;;;;;5081389;28;20177;-74
2021/01/29 14:24:26;;;;;;;14.82;3.72;;;8.80;99.90;;;;;;5094432;28;20493;-74
2021/01/29 14:27:08;;;;;;;19.02;4.78;;;8.80;99.90;;;;;;5110291;28;20107;-74
2021/01/29 14:30:02;;;;;;;13.27;3.80;;;8.70;99.90;;;;;;5092333;28;20028;-75
2021/01/29 14:35:23;;;;;;;15.77;3.40;;;8.80;99.90;;;;;;5111040;27;20356;-74
2021/01/29 14:38:17;;;;;;;11.50;3.38;;;8.90;99.90;;;;;;5109635;28;20027;-74
2021/01/29 14:41:08;;;;;;;17.10;3.58;;;8.90;99.90;;;;;;5090875;28;20028;-74
2021/01/29 14:44:02;;;;;;;17.33;4.13;;;8.90;99.90;;;;;;5097014;28;20073;-75
2021/01/29 14:46:57;;;;;;;13.10;3.60;;;8.80;99.90;;;;;;5111613;28;20027;-75
2021/01/29 14:49:51;;;;;;;14.70;4.43;;;8.80;99.90;;;;;;5109368;28;20054;-75
2021/01/29 14:52:22;;;;;;;15.48;4.10;;;8.80;99.90;;;;;;5078272;28;20463;-74
2021/01/29 14:55:01;;;;;;;10.85;3.60;;;8.80;99.90;;;;;;5102097;28;20028;-74
2021/01/29 14:57:39;;;;;;;13.30;3.63;;;8.80;99.90;;;;;;5111085;28;20020;-74
2021/01/29 15:00:12;;;;;;;15.60;4.30;;;8.90;99.90;;;;;;5096079;28;20020;-74
2021/01/29 15:03:02;;;;;;;24.03;4.67;;;8.90;99.90;;;;;;5089110;28;20138;-74
2021/01/29 15:05:34;;;;;;;21.02;3.90;;;8.90;99.90;;;;;;5107697;28;20364;-74
2021/01/29 15:08:02;;;;;;;25.13;5.60;;;9.00;99.90;;;;;;5088642;28;20058;-74
2021/01/29 15:10:32;;;;;;;20.80;4.40;;;9.00;99.90;;;;;;5091667;28;20495;-74
2021/01/29 15:12:58;;;;;;;17.50;4.45;;;9.00;99.90;;;;;;5090248;28;20051;-75
2021/01/29 15:15:29;;;;;;;20.10;4.28;;;9.00;99.90;;;;;;5103578;28;20019;-75